Time;durP1;ratioP1;P1;durP2;ratioP2;P2;SDS_P1;SDS_P2;PMS_P1;PMS_P2;Temp;Humidity;BMP_temperature;BMP_pressure;BME280_temperature;BME280_humidity;BME280_pressure;Samples;Min_cycle;Max_cycle;Signal;HPM_P1;HPM_P2
2020/12/14 00:02:26;;;;;;;97.20;18.70;;;;;;;5.63;100.00;97854.19;5091769;28;20207;-68
2020/12/14 00:04:54;;;;;;;138.80;19.90;;;;;;;5.53;100.00;97853.63;5085615;28;20288;-68
2020/12/14 00:07:21;;;;;;;93.70;19.27;;;;;;;5.64;100.00;97850.31;5080513;28;20719;-69
2020/12/14 00:09:47;;;;;;;91.43;18.60;;;;;;;5.72;100.00;97857.78;5086290;28;20221;-68
2020/12/14 00:12:13;;;;;;;117.00;18.63;;;;;;;5.71;100.00;97856.16;5099086;28;20208;-68
2020/12/14 00:14:39;;;;;;;150.10;21.03;;;;;;;5.66;100.00;97850.00;5097252;28;20224;-68
2020/12/14 00:17:05;;;;;;;47.93;18.30;;;;;;;5.83;100.00;97848.22;5096855;28;20208;-68
2020/12/14 00:19:32;;;;;;;120.27;21.03;;;;;;;5.70;100.00;97842.78;5092773;28;20265;-68
2020/12/14 00:21:58;;;;;;;93.83;19.40;;;;;;;5.58;100.00;97832.41;5089537;28;20255;-67
2020/12/14 00:24:24;;;;;;;75.73;19.67;;;;;;;5.61;100.00;97833.69;5086429;28;20221;-68
2020/12/14 00:26:51;;;;;;;160.27;21.13;;;;;;;5.59;100.00;97836.75;5084308;28;20236;-68
2020/12/14 00:29:18;;;;;;;54.73;18.23;;;;;;;5.82;100.00;97846.53;5095958;28;20558;-68
2020/12/14 00:31:49;;;;;;;73.57;18.53;;;;;;;5.64;100.00;97844.84;5095948;28;20212;-67
2020/12/14 00:34:17;;;;;;;37.67;18.67;;;;;;;5.69;100.00;97852.13;5096395;28;20747;-67
2020/12/14 00:36:59;;;;;;;42.40;17.77;;;;;;;5.74;100.00;97849.25;5097755;28;20227;-68
2020/12/14 00:39:25;;;;;;;43.47;18.20;;;;;;;5.57;100.00;97849.94;5093242;28;20205;-68
2020/12/14 00:41:51;;;;;;;35.50;17.57;;;;;;;5.82;100.00;97848.50;5092918;28;20293;-68
2020/12/14 00:44:17;;;;;;;56.03;17.80;;;;;;;5.67;100.00;97852.44;5091694;28;20251;-67
2020/12/14 00:46:44;;;;;;;41.07;18.17;;;;;;;5.59;100.00;97850.44;5098528;28;20209;-67
2020/12/14 00:49:12;;;;;;;51.63;17.20;;;;;;;5.53;100.00;97846.22;5095138;28;20363;-66
2020/12/14 00:51:38;;;;;;;81.10;18.77;;;;;;;5.52;100.00;97844.59;5097660;28;20209;-67
2020/12/14 00:54:04;;;;;;;76.40;17.87;;;;;;;5.52;100.00;97839.13;5095349;28;20697;-68
2020/12/14 00:56:32;;;;;;;90.67;18.33;;;;;;;5.62;100.00;97836.13;5097130;28;20236;-69
2020/12/14 01:33:41;;;;;;;38.20;21.37;;;;;;;6.29;100.00;97899.84;5109579;27;20487;-69
2020/12/14 01:36:07;;;;;;;47.47;22.53;;;;;;;6.35;100.00;97892.28;5109794;28;20290;-68
2020/12/14 01:38:34;;;;;;;51.50;22.93;;;;;;;6.12;100.00;97889.63;5109628;28;20307;-68
2020/12/14 01:41:00;;;;;;;46.70;22.83;;;;;;;5.99;100.00;97885.03;5109683;28;20668;-68
2020/12/14 01:43:26;;;;;;;45.53;22.20;;;;;;;6.20;100.00;97879.81;5109463;28;20206;-68
2020/12/14 01:45:52;;;;;;;42.67;20.67;;;;;;;6.24;100.00;97864.34;5109908;28;20250;-68
2020/12/14 01:48:23;;;;;;;54.43;21.13;;;;;;;6.29;100.00;97858.75;5110135;28;20204;-67
2020/12/14 01:50:50;;;;;;;38.83;21.27;;;;;;;6.28;100.00;97853.59;5115521;28;20231;-69
2020/12/14 01:53:18;;;;;;;63.77;22.37;;;;;;;6.02;100.00;97843.31;5115288;28;20269;-69
2020/12/14 01:55:46;;;;;;;61.53;20.03;;;;;;;5.82;100.00;97837.56;5109216;28;20220;-69
2020/12/14 01:58:13;;;;;;;44.37;20.43;;;;;;;5.84;100.00;97827.09;5109105;28;20661;-69
2020/12/14 02:00:39;;;;;;;42.43;21.13;;;;;;;5.98;100.00;97828.66;5109563;28;20219;-69
2020/12/14 02:03:05;;;;;;;37.97;19.93;;;;;;;6.15;100.00;97827.88;5109052;28;20237;-69
2020/12/14 02:05:31;;;;;;;60.77;22.30;;;;;;;5.88;100.00;97822.63;5109420;28;20633;-69
2020/12/14 02:07:57;;;;;;;62.30;21.10;;;;;;;6.07;100.00;97814.97;5109061;28;20203;-69
2020/12/14 02:10:26;;;;;;;60.47;22.23;;;;;;;5.93;100.00;97815.06;5109067;28;20214;-69
2020/12/14 02:12:52;;;;;;;68.07;21.70;;;;;;;5.77;100.00;97824.78;5108585;28;20677;-70
2020/12/14 02:15:18;;;;;;;73.13;21.90;;;;;;;5.98;100.00;97828.66;5108899;28;20735;-70
2020/12/14 02:17:44;;;;;;;62.00;22.77;;;;;;;5.95;100.00;97840.22;5108840;28;20760;-70
2020/12/14 02:20:10;;;;;;;92.87;23.07;;;;;;;5.93;100.00;97847.94;5108848;28;20693;-70
2020/12/14 02:22:36;;;;;;;54.20;21.53;;;;;;;5.95;100.00;97845.69;5108921;28;20283;-70
2020/12/14 02:25:07;;;;;;;81.70;24.83;;;;;;;5.90;100.00;97851.31;5108356;28;20641;-69
2020/12/14 02:27:35;;;;;;;60.17;21.40;;;;;;;5.84;100.00;97849.81;5109128;28;20294;-69
2020/12/14 02:30:04;;;;;;;56.93;21.90;;;;;;;5.83;100.00;97842.75;5109142;28;20235;-69
2020/12/14 02:32:31;;;;;;;44.63;21.73;;;;;;;6.04;100.00;97845.72;5121089;28;20259;-70
2020/12/14 02:34:57;;;;;;;46.63;20.93;;;;;;;5.81;100.00;97850.41;5117730;28;20694;-70
2020/12/14 02:37:26;;;;;;;52.77;20.40;;;;;;;5.81;100.00;97839.47;5109058;28;20207;-69
2020/12/14 02:39:52;;;;;;;36.03;18.73;;;;;;;5.63;100.00;97837.75;5109091;28;20208;-68
2020/12/14 02:42:20;;;;;;;36.87;20.40;;;;;;;5.72;100.00;97840.53;5108848;28;20283;-68
2020/12/14 02:44:47;;;;;;;51.97;19.43;;;;;;;5.74;100.00;97843.78;5096309;28;20909;-68
2020/12/14 02:47:14;;;;;;;37.47;21.30;;;;;;;5.77;100.00;97843.13;5094880;28;20429;-68
2020/12/14 02:49:41;;;;;;;38.33;20.27;;;;;;;5.82;100.00;97852.03;5094899;28;20204;-68
2020/12/14 02:52:09;;;;;;;31.90;20.23;;;;;;;5.87;100.00;97860.16;5094253;28;20220;-68
2020/12/14 02:54:35;;;;;;;33.50;21.20;;;;;;;5.93;100.00;97863.56;5094605;28;20256;-68
2020/12/14 02:57:02;;;;;;;30.17;18.90;;;;;;;6.01;100.00;97862.78;5094717;28;20208;-69
2020/12/14 02:59:30;;;;;;;29.17;19.47;;;;;;;6.04;100.00;97875.84;5094503;28;20211;-69
2020/12/14 03:02:01;;;;;;;31.03;19.50;;;;;;;6.00;100.00;97875.66;5094663;28;20246;-69
2020/12/14 03:04:28;;;;;;;31.27;19.20;;;;;;;5.98;100.00;97883.41;5094314;28;20220;-68
2020/12/14 03:06:56;;;;;;;30.60;19.57;;;;;;;6.04;100.00;97881.31;5094429;28;20227;-68
2020/12/14 03:09:23;;;;;;;32.77;19.87;;;;;;;6.04;100.00;97879.41;5092929;28;20573;-68
2020/12/14 03:11:50;;;;;;;28.43;18.43;;;;;;;6.24;100.00;97864.34;5091510;28;20312;-68
2020/12/14 03:14:17;;;;;;;27.20;18.77;;;;;;;6.18;100.00;97862.06;5094436;28;20311;-67
2020/12/14 03:16:53;;;;;;;29.63;19.37;;;;;;;6.21;100.00;97866.91;5095892;28;20204;-68
2020/12/14 03:19:20;;;;;;;28.47;18.97;;;;;;;6.10;100.00;97858.97;5095980;28;20204;-67
2020/12/14 03:21:46;;;;;;;32.73;19.63;;;;;;;5.97;100.00;97859.88;5098750;28;20232;-67
2020/12/14 03:24:12;;;;;;;32.90;19.70;;;;;;;5.93;100.00;97853.41;5096195;28;20267;-67
2020/12/14 03:26:38;;;;;;;27.63;18.30;;;;;;;6.18;100.00;97844.50;5096335;28;20291;-67
2020/12/14 03:29:05;;;;;;;28.07;18.47;;;;;;;6.04;100.00;97860.22;5095609;28;20291;-67
2020/12/14 03:31:32;;;;;;;29.43;18.60;;;;;;;5.96;100.00;97855.53;5094877;28;20204;-67
2020/12/14 03:34:00;;;;;;;29.73;19.57;;;;;;;6.03;100.00;97852.34;5094874;28;20221;-66
2020/12/14 03:36:26;;;;;;;29.77;19.33;;;;;;;6.21;100.00;97859.50;5094841;28;20200;-67
2020/12/14 03:38:54;;;;;;;35.03;19.67;;;;;;;6.00;100.00;97859.25;5094992;28;20669;-67
2020/12/14 03:41:21;;;;;;;37.30;19.40;;;;;;;5.91;100.00;97871.28;5094964;28;20201;-66
2020/12/14 03:43:48;;;;;;;29.37;19.00;;;;;;;6.05;100.00;97870.09;5095036;28;20215;-67
2020/12/14 03:46:18;;;;;;;31.83;19.50;;;;;;;6.02;100.00;97867.16;5094168;28;20342;-67
2020/12/14 03:48:44;;;;;;;33.53;19.83;;;;;;;5.92;100.00;97868.25;5093390;28;20253;-67
2020/12/14 03:51:12;;;;;;;32.27;20.07;;;;;;;5.91;100.00;97871.28;5095625;28;20212;-66
2020/12/14 03:53:42;;;;;;;31.60;20.37;;;;;;;5.87;100.00;97873.84;5096286;28;20635;-66
2020/12/14 03:56:08;;;;;;;30.93;19.90;;;;;;;6.11;100.00;97866.06;5096167;28;20268;-66
2020/12/14 03:58:34;;;;;;;38.67;20.53;;;;;;;6.04;100.00;97852.00;5095737;28;20299;-66
2020/12/14 04:01:00;;;;;;;42.13;21.10;;;;;;;5.90;100.00;97847.75;5096622;28;20319;-66
2020/12/14 04:03:27;;;;;;;64.13;21.67;;;;;;;5.86;100.00;97842.09;5096513;28;20685;-66
2020/12/14 04:05:53;;;;;;;80.87;21.67;;;;;;;5.84;100.00;97849.00;5096092;28;20716;-66
2020/12/14 04:08:19;;;;;;;61.23;22.10;;;;;;;5.86;100.00;97842.09;5097519;28;20275;-66
2020/12/14 04:10:45;;;;;;;62.90;21.10;;;;;;;5.88;100.00;97850.00;5091532;28;20295;-66
2020/12/14 04:13:12;;;;;;;66.10;20.87;;;;;;;5.81;100.00;97850.41;5095680;28;20311;-66
2020/12/14 04:15:38;;;;;;;84.40;20.40;;;;;;;5.77;100.00;97846.69;5096486;28;20236;-67
2020/12/14 04:18:04;;;;;;;50.60;21.17;;;;;;;5.90;100.00;97845.00;5095377;28;20299;-66
2020/12/14 04:20:33;;;;;;;39.57;21.67;;;;;;;5.84;100.00;97838.88;5095600;28;20635;-66
2020/12/14 04:22:59;;;;;;;48.07;21.60;;;;;;;5.87;100.00;97843.72;5095997;28;20240;-67
2020/12/14 04:25:25;;;;;;;72.77;21.93;;;;;;;5.75;100.00;97840.72;5096098;28;20281;-66
2020/12/14 04:27:52;;;;;;;62.83;21.00;;;;;;;5.65;100.00;97849.19;5095986;28;20211;-66
2020/12/14 04:30:18;;;;;;;95.97;22.77;;;;;;;5.79;100.00;97857.31;5095935;28;20261;-69
2020/12/14 04:32:45;;;;;;;79.70;21.80;;;;;;;5.73;100.00;97853.13;5095495;28;20228;-68
2020/12/14 04:35:11;;;;;;;54.30;21.20;;;;;;;5.75;100.00;97846.19;5095116;28;20291;-68
2020/12/14 04:37:37;;;;;;;52.83;22.23;;;;;;;5.75;100.00;97846.19;5095996;28;20288;-68
2020/12/14 04:40:04;;;;;;;45.07;21.13;;;;;;;5.84;100.00;97852.56;5095317;28;20235;-68
2020/12/14 04:42:31;;;;;;;33.40;20.77;;;;;;;5.84;100.00;97854.47;5094626;28;20235;-67
2020/12/14 04:44:58;;;;;;;50.43;22.63;;;;;;;5.76;100.00;97860.69;5095042;28;20315;-68
2020/12/14 04:47:27;;;;;;;35.27;21.80;;;;;;;5.85;100.00;97859.66;5097512;28;20235;-68
2020/12/14 04:49:54;;;;;;;35.50;20.50;;;;;;;5.89;100.00;97849.69;5098726;28;20299;-67
2020/12/14 04:52:22;;;;;;;32.07;19.83;;;;;;;5.88;100.00;97848.06;5097296;28;20232;-68
2020/12/14 04:54:48;;;;;;;28.03;18.47;;;;;;;5.87;100.00;97853.88;5101384;28;20288;-67
2020/12/14 04:57:15;;;;;;;29.97;18.93;;;;;;;5.85;100.00;97854.19;5100304;28;20312;-70
2020/12/14 04:59:42;;;;;;;34.43;19.13;;;;;;;5.93;100.00;97847.94;5096330;28;20212;-69
2020/12/14 05:02:10;;;;;;;26.77;17.23;;;;;;;5.96;100.00;97841.84;5097166;28;20224;-68
2020/12/14 05:04:39;;;;;;;25.57;16.30;;;;;;;5.82;100.00;97846.53;5097470;28;20220;-68
2020/12/14 05:07:06;;;;;;;27.17;17.30;;;;;;;5.86;100.00;97850.31;5099534;28;20224;-68
2020/12/14 05:09:32;;;;;;;25.23;16.33;;;;;;;5.93;100.00;97842.47;5094529;28;20247;-67
2020/12/14 05:11:59;;;;;;;22.73;15.97;;;;;;;5.95;100.00;97851.16;5095369;28;20226;-68
2020/12/14 05:14:27;;;;;;;24.27;17.00;;;;;;;5.90;100.00;97853.22;5096720;28;20792;-68
2020/12/14 05:16:54;;;;;;;24.83;15.90;;;;;;;5.93;100.00;97858.09;5096004;28;20649;-67
2020/12/14 05:19:20;;;;;;;26.43;16.10;;;;;;;6.05;100.00;97856.38;5097589;28;20246;-68
2020/12/14 05:21:48;;;;;;;23.30;15.77;;;;;;;6.11;100.00;97855.09;5096459;28;20205;-68
2020/12/14 05:24:19;;;;;;;22.60;15.37;;;;;;;6.21;100.00;97858.69;5093806;28;20230;-67
2020/12/14 05:26:49;;;;;;;24.63;15.87;;;;;;;6.23;100.00;97845.50;5094368;28;20205;-68
2020/12/14 05:29:23;;;;;;;21.87;14.50;;;;;;;5.92;100.00;97856.47;5094566;28;20211;-67
2020/12/14 05:31:58;;;;;;;21.40;13.80;;;;;;;5.97;100.00;97853.59;5094944;28;20714;-68
2020/12/14 05:34:30;;;;;;;21.40;14.20;;;;;;;6.14;100.00;97854.50;5094726;28;20277;-68
2020/12/14 05:36:58;;;;;;;20.60;14.10;;;;;;;6.12;100.00;97854.00;5099835;28;20268;-68
2020/12/14 05:39:26;;;;;;;18.73;14.33;;;;;;;6.34;100.00;97855.03;5106569;28;20303;-67
2020/12/14 05:41:52;;;;;;;19.30;14.63;;;;;;;6.22;100.00;97852.91;5096248;28;20291;-67
2020/12/14 05:44:27;;;;;;;18.87;13.50;;;;;;;6.17;100.00;97850.28;5094980;28;20933;-67
2020/12/14 05:46:54;;;;;;;19.17;13.23;;;;;;;6.08;100.00;97844.78;5094504;28;20239;-67
2020/12/14 05:49:20;;;;;;;23.30;13.93;;;;;;;5.98;100.00;97850.56;5092722;28;20254;-66
2020/12/14 05:51:49;;;;;;;19.73;13.37;;;;;;;5.98;100.00;97844.25;5091769;28;20629;-68
2020/12/14 05:54:23;;;;;;;17.97;13.30;;;;;;;5.91;100.00;97832.97;5093558;28;20232;-66
2020/12/14 05:56:52;;;;;;;18.77;12.73;;;;;;;5.83;100.00;97856.44;5091849;28;20208;-69
2020/12/14 05:59:18;;;;;;;17.57;12.90;;;;;;;5.96;100.00;97862.94;5091360;28;20699;-68
2020/12/14 06:01:47;;;;;;;18.03;13.20;;;;;;;5.92;100.00;97861.94;5091495;28;20278;-67
2020/12/14 06:04:16;;;;;;;16.40;12.10;;;;;;;5.92;100.00;97864.69;5091390;28;20483;-68
2020/12/14 06:06:47;;;;;;;18.33;12.57;;;;;;;5.87;100.00;97856.59;5091981;28;20292;-67
2020/12/14 06:09:21;;;;;;;17.67;12.80;;;;;;;6.05;100.00;97853.66;5091147;28;20204;-67
2020/12/14 06:11:52;;;;;;;19.37;12.17;;;;;;;5.90;100.00;97858.72;5086439;28;20225;-67
2020/12/14 06:14:20;;;;;;;17.07;13.10;;;;;;;6.07;100.00;97858.81;5080277;28;20894;-68
2020/12/14 06:16:46;;;;;;;19.53;13.20;;;;;;;6.11;100.00;97855.09;5086069;28;20200;-68
2020/12/14 06:19:16;;;;;;;16.53;13.37;;;;;;;6.04;100.00;97852.00;5086264;28;20208;-67
2020/12/14 06:21:56;;;;;;;18.07;13.97;;;;;;;6.12;100.00;97856.75;5092192;28;20278;-67
2020/12/14 06:24:23;;;;;;;16.43;13.50;;;;;;;6.08;100.00;97861.22;5083873;28;20712;-67
2020/12/14 06:26:50;;;;;;;17.30;13.77;;;;;;;5.98;100.00;97864.25;5084418;28;20221;-66
2020/12/14 06:29:36;;;;;;;18.60;13.97;;;;;;;6.04;100.00;97853.94;5092403;28;20197;-67
2020/12/14 06:32:03;;;;;;;18.83;14.37;;;;;;;5.93;100.00;97853.41;5094687;28;20295;-69
2020/12/14 06:34:32;;;;;;;18.20;13.87;;;;;;;5.90;100.00;97854.03;5093472;28;20228;-69
2020/12/14 06:37:00;;;;;;;19.17;13.73;;;;;;;5.99;100.00;97857.63;5094714;28;20723;-68
2020/12/14 06:39:29;;;;;;;17.60;13.93;;;;;;;5.92;100.00;97857.28;5094942;28;20209;-67
2020/12/14 06:42:07;;;;;;;20.10;14.27;;;;;;;5.95;100.00;97859.38;5094993;28;20295;-67
2020/12/14 06:44:34;;;;;;;20.00;15.13;;;;;;;6.12;100.00;97855.91;5094657;28;20287;-67
2020/12/14 06:47:19;;;;;;;20.20;14.97;;;;;;;5.89;100.00;97862.59;5077391;28;20236;-67
2020/12/14 06:49:47;;;;;;;17.87;15.00;;;;;;;5.87;100.00;97860.16;5075331;28;20567;-67
2020/12/14 06:52:34;;;;;;;19.40;15.70;;;;;;;5.79;100.00;97869.09;5076455;28;20225;-67
2020/12/14 06:55:02;;;;;;;20.80;16.67;;;;;;;5.83;100.00;97869.31;5072988;28;20229;-66
2020/12/14 06:57:37;;;;;;;20.60;16.30;;;;;;;5.74;100.00;97869.22;5084304;28;20721;-66
2020/12/14 07:00:04;;;;;;;22.50;16.07;;;;;;;5.75;100.00;97861.81;5083166;28;20198;-67
2020/12/14 07:02:35;;;;;;;20.07;16.33;;;;;;;5.71;100.00;97869.81;5083889;28;20208;-66
2020/12/14 07:05:02;;;;;;;20.33;16.43;;;;;;;5.66;100.00;97869.16;5083939;28;20219;-67
2020/12/14 07:07:30;;;;;;;21.13;17.00;;;;;;;5.70;100.00;97867.41;5080122;28;20197;-67
2020/12/14 07:10:11;;;;;;;22.20;17.23;;;;;;;5.65;100.00;97876.56;5089837;28;20288;-66
2020/12/14 07:12:42;;;;;;;20.63;16.93;;;;;;;5.64;100.00;97871.41;5093866;28;20727;-69
2020/12/14 07:15:28;;;;;;;20.87;17.47;;;;;;;5.66;100.00;97869.97;5089381;28;20740;-67
2020/12/14 07:18:10;;;;;;;22.03;16.17;;;;;;;5.57;100.00;97881.97;5083408;28;20705;-67
2020/12/14 07:20:46;;;;;;;19.77;16.70;;;;;;;5.62;100.00;97879.13;5079302;28;20586;-67
2020/12/14 07:23:14;;;;;;;21.50;16.20;;;;;;;5.65;100.00;97883.97;5072931;28;20688;-67
2020/12/14 07:25:47;;;;;;;20.73;16.93;;;;;;;5.67;100.00;97882.56;5089387;28;20286;-70
2020/12/14 07:28:16;;;;;;;19.73;16.63;;;;;;;5.75;100.00;97875.47;5091992;28;20203;-70
2020/12/14 07:30:42;;;;;;;20.03;17.07;;;;;;;5.73;100.00;97880.50;5093374;28;20288;-67
2020/12/14 07:33:09;;;;;;;20.80;17.43;;;;;;;5.68;100.00;97884.16;5091180;28;20232;-68
2020/12/14 07:35:35;;;;;;;20.60;16.70;;;;;;;5.65;100.00;97884.78;5092349;28;20256;-68
2020/12/14 07:38:01;;;;;;;19.33;16.17;;;;;;;5.60;100.00;97887.63;5093151;28;20261;-67
2020/12/14 07:40:27;;;;;;;17.80;15.90;;;;;;;5.69;100.00;97890.44;5092002;28;20208;-67
2020/12/14 07:42:53;;;;;;;22.23;16.97;;;;;;;5.72;100.00;97882.41;5093143;28;20236;-67
2020/12/14 07:45:25;;;;;;;19.17;15.90;;;;;;;5.73;100.00;97878.53;5091909;28;20296;-68
2020/12/14 07:47:53;;;;;;;23.97;17.37;;;;;;;5.79;100.00;97882.78;5093079;28;20211;-68
2020/12/14 07:50:21;;;;;;;24.43;18.10;;;;;;;5.81;100.00;97888.75;5093356;28;20295;-68
2020/12/14 07:52:49;;;;;;;23.03;17.63;;;;;;;5.76;100.00;97896.28;5097020;28;20282;-69
2020/12/14 07:55:16;;;;;;;21.60;16.53;;;;;;;5.58;100.00;97898.09;5104018;28;20713;-67
2020/12/14 07:57:45;;;;;;;22.17;17.60;;;;;;;5.72;100.00;97896.09;5093218;28;20247;-68
2020/12/14 08:00:41;;;;;;;21.83;17.63;;;;;;;5.80;100.00;97894.53;5096018;28;20272;-68
2020/12/14 08:03:07;;;;;;;25.10;18.00;;;;;;;5.73;100.00;97897.69;5088519;28;20698;-67
2020/12/14 08:05:33;;;;;;;25.83;16.97;;;;;;;5.75;100.00;97898.22;5092692;28;20319;-68
2020/12/14 08:08:04;;;;;;;20.73;16.20;;;;;;;5.65;100.00;97901.22;5091771;28;20208;-68
2020/12/14 08:10:35;;;;;;;20.87;17.13;;;;;;;5.75;100.00;97890.00;5092568;28;20287;-69
2020/12/14 08:13:09;;;;;;;21.53;16.63;;;;;;;5.73;100.00;97886.75;5091560;28;20220;-69
2020/12/14 08:15:39;;;;;;;21.83;17.37;;;;;;;5.75;100.00;97890.00;5090801;28;20234;-70
2020/12/14 08:18:06;;;;;;;23.23;16.83;;;;;;;5.72;100.00;97885.16;5092314;28;20299;-68
2020/12/14 08:20:39;;;;;;;21.63;16.47;;;;;;;5.64;100.00;97898.78;5092434;28;20287;-69
2020/12/14 08:23:23;;;;;;;21.00;17.00;;;;;;;5.74;100.00;97898.53;5092101;28;20682;-70
2020/12/14 08:25:53;;;;;;;19.97;16.80;;;;;;;5.67;100.00;97893.50;5092094;28;20225;-69
2020/12/14 08:28:30;;;;;;;22.23;16.70;;;;;;;5.69;100.00;97895.91;5092188;28;20278;-68
2020/12/14 08:30:57;;;;;;;20.60;16.63;;;;;;;5.71;100.00;97904.63;5092201;28;20283;-68
2020/12/14 08:33:23;;;;;;;22.40;16.47;;;;;;;5.82;100.00;97898.56;5090626;28;20224;-69
2020/12/14 08:35:53;;;;;;;21.73;17.23;;;;;;;5.86;100.00;97904.25;5091380;28;20225;-69
2020/12/14 08:38:22;;;;;;;22.10;16.73;;;;;;;5.89;100.00;97907.19;5103796;28;20262;-69
2020/12/14 08:41:02;;;;;;;19.70;16.53;;;;;;;5.95;100.00;97911.41;5105716;28;20209;-69
2020/12/14 08:43:30;;;;;;;20.47;16.30;;;;;;;5.82;100.00;97912.25;5091093;28;20208;-70
2020/12/14 08:46:27;;;;;;;20.67;15.70;;;;;;;5.83;100.00;97902.97;5091496;28;20224;-69
2020/12/14 08:48:57;;;;;;;20.13;15.77;;;;;;;5.89;100.00;97903.66;5091431;28;20259;-69
2020/12/14 08:51:32;;;;;;;19.53;15.87;;;;;;;5.89;100.00;97909.13;5092030;28;20204;-67
2020/12/14 08:54:16;;;;;;;18.93;15.43;;;;;;;5.82;100.00;97901.31;5077297;28;20233;-67
2020/12/14 08:56:43;;;;;;;20.87;15.23;;;;;;;5.89;100.00;97901.69;5071014;28;20205;-67
2020/12/14 08:59:16;;;;;;;19.83;14.80;;;;;;;5.84;100.00;97904.56;5071448;28;20646;-67
2020/12/14 09:02:08;;;;;;;19.60;15.30;;;;;;;5.84;100.00;97903.75;5071639;28;20292;-69
2020/12/14 09:04:40;;;;;;;19.23;15.13;;;;;;;5.83;100.00;97897.50;5069802;28;20225;-69
2020/12/14 09:07:06;;;;;;;22.53;15.37;;;;;;;6.02;100.00;97909.03;5071405;28;20283;-67
2020/12/14 09:09:38;;;;;;;20.60;14.77;;;;;;;5.82;100.00;97906.78;5073928;28;20661;-68
2020/12/14 09:12:12;;;;;;;19.67;15.03;;;;;;;5.74;100.00;97914.94;5086200;28;20201;-67
2020/12/14 09:14:38;;;;;;;21.63;15.70;;;;;;;5.72;100.00;97909.78;5070116;28;20229;-68
2020/12/14 09:17:11;;;;;;;19.73;14.80;;;;;;;5.87;100.00;97916.84;5071199;28;20284;-68
2020/12/14 09:19:38;;;;;;;16.43;12.60;;;;;;;5.84;100.00;97917.44;5071164;28;20209;-68
2020/12/14 09:22:04;;;;;;;15.90;12.20;;;;;;;5.82;100.00;97923.22;5076081;28;20209;-67
2020/12/14 09:24:35;;;;;;;17.43;12.80;;;;;;;5.95;100.00;97916.88;5103407;28;20271;-67
2020/12/14 09:27:13;;;;;;;17.57;13.00;;;;;;;5.88;100.00;97923.94;5095768;28;20725;-70
2020/12/14 09:29:41;;;;;;;18.37;11.70;;;;;;;5.90;100.00;97927.16;5090886;28;20303;-69
2020/12/14 09:32:09;;;;;;;16.33;12.23;;;;;;;5.97;100.00;97922.88;5090418;28;20295;-71
2020/12/14 09:34:36;;;;;;;15.17;11.23;;;;;;;5.97;100.00;97917.38;5090044;28;20285;-72
2020/12/14 09:37:03;;;;;;;14.47;11.17;;;;;;;5.95;100.00;97916.88;5092124;28;20642;-70
2020/12/14 09:39:30;;;;;;;13.57;10.63;;;;;;;5.92;100.00;97909.31;5091097;28;20677;-69
2020/12/14 09:41:57;;;;;;;15.47;11.13;;;;;;;5.94;100.00;97911.72;5092664;28;20243;-69
2020/12/14 09:44:24;;;;;;;13.57;10.80;;;;;;;5.93;100.00;97902.69;5091999;28;20233;-69
2020/12/14 09:46:51;;;;;;;13.53;10.10;;;;;;;5.89;100.00;97901.69;5080002;28;20201;-69
2020/12/14 09:49:17;;;;;;;12.57;10.07;;;;;;;5.94;100.00;97909.81;5078051;28;20199;-69
2020/12/14 09:51:44;;;;;;;13.53;9.77;;;;;;;6.07;100.00;97914.41;5091197;28;20692;-69
2020/12/14 09:54:10;;;;;;;14.00;9.27;;;;;;;6.01;100.00;97901.97;5092289;28;20228;-69
2020/12/14 09:56:36;;;;;;;13.20;9.73;;;;;;;6.15;100.00;97899.94;5095018;28;20299;-70
2020/12/14 09:59:03;;;;;;;11.43;8.70;;;;;;;6.17;100.00;97907.03;5093857;28;20243;-70
2020/12/14 10:01:30;;;;;;;13.87;9.00;;;;;;;6.18;100.00;97910.25;5095461;28;20264;-69
2020/12/14 10:03:57;;;;;;;9.30;7.37;;;;;;;6.47;100.00;97908.94;5095830;28;20754;-69
2020/12/14 10:06:24;;;;;;;8.47;7.07;;;;;;;6.56;100.00;97904.31;5095393;28;20201;-68
2020/12/14 10:08:50;;;;;;;8.80;6.73;;;;;;;6.67;100.00;97894.66;5094925;28;20244;-71
2020/12/14 10:11:17;;;;;;;8.10;6.37;;;;;;;6.54;100.00;97893.66;5088168;28;20734;-68
2020/12/14 10:13:45;;;;;;;8.80;6.77;;;;;;;6.29;100.00;97912.72;5073838;28;20282;-68
2020/12/14 10:16:14;;;;;;;8.57;5.70;;;;;;;6.32;100.00;97891.00;5075792;28;20201;-68
2020/12/14 10:18:40;;;;;;;9.57;6.20;;;;;;;6.34;100.00;97887.94;5083364;28;20258;-68
2020/12/14 10:21:07;;;;;;;9.93;6.70;;;;;;;6.50;100.00;97903.63;5095282;28;20670;-69
2020/12/14 10:23:33;;;;;;;8.70;6.73;;;;;;;6.52;100.00;97897.81;5083213;28;20631;-68
2020/12/14 10:25:59;;;;;;;8.43;6.53;;;;;;;6.62;100.00;97900.31;5091131;28;20258;-67
2020/12/14 10:28:27;;;;;;;7.83;6.10;;;;;;;6.43;100.00;97891.50;5094082;28;20303;-69
2020/12/14 10:30:54;;;;;;;8.37;6.40;;;;;;;6.66;100.00;97893.06;5094759;28;20209;-69
2020/12/14 10:33:22;;;;;;;7.10;5.77;;;;;;;6.77;100.00;97888.91;5094135;28;20705;-70
2020/12/14 10:35:49;;;;;;;8.80;6.33;;;;;;;6.69;100.00;97886.94;5095736;28;20232;-69
2020/12/14 10:38:24;;;;;;;7.73;6.47;;;;;;;6.69;100.00;97881.44;5094959;28;20208;-71
2020/12/14 10:40:54;;;;;;;7.70;6.30;;;;;;;6.49;100.00;97882.03;5095047;28;20208;-70
2020/12/14 10:43:20;;;;;;;7.30;6.50;;;;;;;6.49;100.00;97882.03;5075577;28;20212;-69
2020/12/14 10:45:46;;;;;;;9.27;7.33;;;;;;;6.62;100.00;97879.19;5094330;28;20267;-69
2020/12/14 10:48:15;;;;;;;9.87;7.00;;;;;;;6.63;100.00;97878.03;5077228;28;20204;-69
2020/12/14 10:50:45;;;;;;;8.63;6.67;;;;;;;6.72;100.00;97883.53;5094214;28;20673;-68
2020/12/14 10:53:12;;;;;;;9.83;7.57;;;;;;;6.58;100.00;97880.13;5097945;28;20220;-69
2020/12/14 10:55:38;;;;;;;9.67;7.30;;;;;;;6.66;100.00;97876.63;5104390;28;20285;-68
2020/12/14 10:58:04;;;;;;;11.13;6.70;;;;;;;6.84;100.00;97889.25;5097001;28;20238;-69
2020/12/14 11:00:30;;;;;;;9.47;6.87;;;;;;;6.82;100.00;97884.06;5095311;28;20204;-70
2020/12/14 11:02:58;;;;;;;9.23;6.83;;;;;;;6.67;100.00;97879.03;5094966;28;20268;-69
2020/12/14 11:05:24;;;;;;;8.13;6.70;;;;;;;6.69;100.00;97886.94;5080753;28;20279;-68
2020/12/14 11:07:50;;;;;;;8.07;6.50;;;;;;;6.79;100.00;97876.47;5094672;28;20200;-69
2020/12/14 11:10:16;;;;;;;7.03;5.87;;;;;;;6.72;100.00;97880.81;5089123;28;20207;-70
2020/12/14 11:12:42;;;;;;;8.03;6.30;;;;;;;6.77;100.00;97872.44;5094504;28;20225;-70
2020/12/14 11:15:09;;;;;;;8.10;6.57;;;;;;;6.64;100.00;97876.13;5091619;28;20312;-69
2020/12/14 11:17:37;;;;;;;7.33;6.07;;;;;;;6.62;100.00;97868.22;5094328;28;20672;-69
2020/12/14 11:20:12;;;;;;;8.47;6.63;;;;;;;6.60;100.00;97869.66;5094467;28;20212;-70
2020/12/14 11:22:43;;;;;;;8.20;6.80;;;;;;;6.57;100.00;97873.03;5093099;28;20554;-70
2020/12/14 11:25:13;;;;;;;7.13;5.93;;;;;;;6.47;100.00;97873.31;5093394;28;20649;-69
2020/12/14 11:27:39;;;;;;;8.23;6.53;;;;;;;6.61;100.00;97876.72;5092140;28;20208;-69
2020/12/14 11:30:06;;;;;;;8.17;5.97;;;;;;;6.42;100.00;97865.25;5093784;28;20200;-70
2020/12/14 11:32:33;;;;;;;6.30;5.50;;;;;;;6.62;100.00;97870.16;5090371;28;20270;-69
2020/12/14 11:34:59;;;;;;;6.77;6.07;;;;;;;6.57;100.00;97873.03;5091245;28;20307;-69
2020/12/14 11:37:25;;;;;;;7.50;6.70;;;;;;;6.61;100.00;97871.25;5084128;28;20311;-70
2020/12/14 11:39:54;;;;;;;7.60;6.37;;;;;;;6.52;100.00;97873.16;5086901;28;20209;-71
2020/12/14 11:42:20;;;;;;;9.70;7.17;;;;;;;6.50;100.00;97875.41;5057350;28;20202;-69
2020/12/14 11:44:47;;;;;;;7.40;6.03;;;;;;;6.71;100.00;97860.00;5070922;28;20262;-70
2020/12/14 11:47:16;;;;;;;8.67;5.77;;;;;;;6.67;100.00;97859.03;5091174;28;20209;-71
2020/12/14 11:49:48;;;;;;;8.27;6.07;;;;;;;6.65;100.00;97853.03;5091638;28;20530;-69
2020/12/14 11:52:14;;;;;;;7.17;5.33;;;;;;;6.68;100.00;97855.97;5092671;28;20257;-69
2020/12/14 11:54:40;;;;;;;9.50;6.50;;;;;;;6.57;100.00;97856.59;5091871;28;20239;-69
2020/12/14 11:57:07;;;;;;;8.63;6.47;;;;;;;6.60;100.00;97850.47;5092800;28;20248;-70
2020/12/14 11:59:33;;;;;;;7.37;6.50;;;;;;;6.88;100.00;97846.31;5092506;28;20208;-69
2020/12/14 12:02:02;;;;;;;7.53;6.53;;;;;;;6.56;100.00;97860.44;5092374;28;20205;-69